Time;durP1;ratioP1;P1;durP2;ratioP2;P2;SDS_P1;SDS_P2;PMS_P1;PMS_P2;Temp;Humidity;BMP_temperature;BMP_pressure;BME280_temperature;BME280_humidity;BME280_pressure;Samples;Min_cycle;Max_cycle;Signal;HPM_P1;HPM_P2
2022/11/04 06:33:48;;;;;;;;;0.00;0.00;;;;;17.85;57.75;99978.66;4999821;27;45427;-80
2022/11/04 06:36:15;;;;;;;;;0.00;0.00;;;;;17.99;58.17;99980.00;4976525;28;46219;-85
2022/11/04 06:38:41;;;;;;;;;0.00;0.00;;;;;18.21;57.99;99991.34;4975918;28;45871;-86
2022/11/04 06:41:10;;;;;;;;;0.67;0.00;;;;;18.45;57.86;99990.75;4986210;28;45379;-83
2022/11/04 06:43:35;;;;;;;;;2.00;0.00;;;;;18.75;57.26;99993.19;4977980;28;45967;-85
2022/11/04 06:46:01;;;;;;;;;0.00;0.00;;;;;19.03;56.87;99999.31;4980165;28;46006;-85
2022/11/04 06:48:29;;;;;;;;;0.00;0.00;;;;;19.30;56.58;99999.38;4985104;28;45418;-84
2022/11/04 06:50:56;;;;;;;;;0.00;0.00;;;;;19.58;56.34;100009.97;4969499;28;45396;-82
2022/11/04 06:53:21;;;;;;;;;0.67;0.67;;;;;19.86;55.61;100010.59;4974302;28;45971;-83
2022/11/04 06:55:46;;;;;;;;;0.00;0.00;;;;;20.12;55.77;100012.41;4978390;28;56700;-81
2022/11/04 06:58:12;;;;;;;;;0.00;0.00;;;;;20.37;55.23;100019.72;4980744;27;50103;-81
2022/11/04 07:00:37;;;;;;;;;0.00;0.00;;;;;20.58;55.02;100021.09;4974058;28;45371;-83
2022/11/04 07:03:02;;;;;;;;;0.00;0.00;;;;;20.78;53.99;100021.63;4969243;28;45352;-82
2022/11/04 07:05:28;;;;;;;;;0.00;0.00;;;;;20.93;54.27;100019.16;4970740;28;45805;-82
2022/11/04 07:07:53;;;;;;;;;1.00;0.00;;;;;21.11;53.45;100016.25;4967715;28;45443;-82
2022/11/04 07:10:18;;;;;;;;;1.00;0.00;;;;;21.26;53.88;100013.69;4986821;28;45371;-79
2022/11/04 07:12:44;;;;;;;;;0.00;0.00;;;;;21.41;53.33;100018.41;4975910;28;46392;-79
2022/11/04 07:15:10;;;;;;;;;0.00;0.00;;;;;21.54;52.95;100018.72;4974642;28;45575;-83
2022/11/04 07:17:35;;;;;;;;;0.00;0.00;;;;;21.67;52.12;100020.03;4988676;28;45481;-81
2022/11/04 07:20:01;;;;;;;;;0.00;0.00;;;;;21.78;51.73;100019.69;4981753;28;45505;-82
2022/11/04 07:22:26;;;;;;;;;0.00;0.00;;;;;21.84;50.74;100027.06;4977154;28;46473;-83
2022/11/04 07:24:51;;;;;;;;;0.00;0.00;;;;;21.88;50.93;100030.31;4974857;28;56204;-84
2022/11/04 07:27:17;;;;;;;;;1.00;0.00;;;;;21.89;50.70;100034.69;4978286;28;45517;-84
2022/11/04 07:29:42;;;;;;;;;2.00;0.00;;;;;21.93;50.75;100046.81;4978291;28;45519;-85
2022/11/04 07:32:07;;;;;;;;;0.00;0.00;;;;;21.95;50.49;100050.19;4977137;28;46525;-84
2022/11/04 07:34:33;;;;;;;;;0.00;0.00;;;;;21.96;49.91;100045.63;4980839;28;45405;-86
2022/11/04 07:36:58;;;;;;;;;0.00;0.00;;;;;21.99;50.03;100064.22;4979086;27;45871;-87
2022/11/04 07:39:23;;;;;;;;;0.00;0.00;;;;;22.04;49.93;100071.78;4986617;27;45367;-87
2022/11/04 07:41:49;;;;;;;;;0.67;0.67;;;;;22.06;49.86;100081.38;4968307;28;53889;-87
2022/11/04 07:44:14;;;;;;;;;2.00;0.33;;;;;22.07;49.90;100080.38;4967232;28;45441;-87
2022/11/04 07:46:40;;;;;;;;;0.00;0.00;;;;;22.09;49.45;100077.50;4970244;28;45623;-84
2022/11/04 07:49:06;;;;;;;;;1.00;0.00;;;;;22.14;49.54;100085.09;4965263;28;45560;-86
2022/11/04 07:51:32;;;;;;;;;0.00;0.00;;;;;22.19;49.55;100096.22;4964997;28;45569;-88
2022/11/04 07:53:58;;;;;;;;;0.00;0.00;;;;;22.22;49.58;100090.44;4976742;28;45941;-85
2022/11/04 07:56:23;;;;;;;;;0.00;0.00;;;;;22.29;49.97;100096.00;4980952;28;45671;-89
2022/11/04 07:58:50;;;;;;;;;0.00;0.00;;;;;22.35;49.89;100097.97;4965161;28;45468;-89
2022/11/04 08:01:18;;;;;;;;;0.00;0.00;;;;;22.45;49.55;100103.19;4961722;28;45516;-83
2022/11/04 08:03:43;;;;;;;;;1.00;1.00;;;;;22.51;49.41;100099.75;4962892;28;45425;-78
2022/11/04 08:06:11;;;;;;;;;0.00;0.00;;;;;22.51;49.67;100097.06;4973835;28;45368;-80
2022/11/04 08:08:36;;;;;;;;;0.00;0.00;;;;;22.66;50.11;100104.44;5031733;28;45435;-80
2022/11/04 08:11:11;;;;;;;;;0.00;0.00;;;;;22.76;49.79;100103.22;4974098;28;46164;-87
2022/11/04 08:13:37;;;;;;;;;0.00;0.00;;;;;22.85;49.49;100113.97;4973945;28;45380;-77
2022/11/04 08:16:09;;;;;;;;;0.00;0.00;;;;;22.97;49.72;100119.81;4973955;28;45553;-77
2022/11/04 08:18:35;;;;;;;;;1.00;0.00;;;;;23.08;50.07;100122.09;4967198;28;45620;-76
2022/11/04 08:21:01;;;;;;;;;0.00;0.00;;;;;23.20;49.34;100124.38;4969686;28;46266;-76
2022/11/04 08:23:27;;;;;;;;;0.00;0.00;;;;;23.30;49.40;100131.22;4974430;28;45468;-78
2022/11/04 08:25:53;;;;;;;;;1.00;0.00;;;;;23.41;49.40;100137.25;4967296;28;45386;-78
2022/11/04 08:28:18;;;;;;;;;0.00;0.00;;;;;23.51;49.26;100137.03;4973304;28;45316;-78
2022/11/04 08:30:52;;;;;;;;;0.00;0.00;;;;;23.59;49.05;100131.53;4988974;28;45497;-78
2022/11/04 08:33:17;;;;;;;;;2.00;0.00;;;;;23.66;48.93;100134.31;4965339;27;45403;-78
2022/11/04 08:35:42;;;;;;;;;0.00;0.00;;;;;23.65;49.07;100128.09;4954882;28;45316;-77
2022/11/04 08:38:08;;;;;;;;;1.00;0.00;;;;;23.79;48.35;100144.56;4960563;28;54104;-80
2022/11/04 08:40:35;;;;;;;;;0.33;0.00;;;;;23.80;47.35;100148.94;4972668;28;53892;-80
2022/11/04 08:43:00;;;;;;;;;0.67;0.67;;;;;23.78;46.94;100150.97;4964442;28;45520;-82
2022/11/04 08:45:25;;;;;;;;;0.00;0.00;;;;;23.75;46.78;100154.91;4973748;28;45462;-82
2022/11/04 08:47:51;;;;;;;;;0.67;0.67;;;;;23.66;47.01;100161.41;4970632;28;45408;-75
2022/11/04 08:50:16;;;;;;;;;1.67;0.00;;;;;23.68;46.86;100171.06;4965149;28;46169;-80
2022/11/04 08:52:41;;;;;;;;;0.00;0.00;;;;;23.70;47.26;100179.00;4971968;28;46309;-75
2022/11/04 08:55:08;;;;;;;;;0.00;0.00;;;;;23.68;47.43;100178.34;4986285;27;46731;-79
2022/11/04 08:57:33;;;;;;;;;1.00;1.00;;;;;23.71;47.42;100185.25;4973399;28;45796;-78
2022/11/04 08:59:58;;;;;;;;;1.00;1.00;;;;;23.78;47.57;100186.19;4964417;28;45489;-77
2022/11/04 09:02:23;;;;;;;;;1.00;1.00;;;;;23.84;47.70;100190.06;4973105;28;51547;-78
2022/11/04 09:04:49;;;;;;;;;2.50;1.00;;;;;23.91;47.80;100204.56;4972927;28;47588;-78
2022/11/04 09:07:14;;;;;;;;;1.67;1.67;;;;;23.94;47.83;100190.63;4963411;28;46308;-79
2022/11/04 09:09:40;;;;;;;;;0.00;0.00;;;;;24.05;47.91;100202.88;4968770;28;54197;-75
2022/11/04 09:12:08;;;;;;;;;0.00;0.00;;;;;24.09;47.92;100204.25;5014324;28;45414;-78
2022/11/04 09:14:34;;;;;;;;;1.33;0.00;;;;;24.12;47.66;100208.44;4975614;27;45395;-78
2022/11/04 09:16:59;;;;;;;;;0.33;0.33;;;;;24.17;48.16;100223.13;4974506;28;45532;-78
2022/11/04 09:19:24;;;;;;;;;0.33;0.00;;;;;24.13;47.87;100210.97;4980840;28;46879;-82
2022/11/04 09:21:49;;;;;;;;;1.67;0.67;;;;;24.21;46.36;100220.88;4971662;28;45615;-75
2022/11/04 09:24:15;;;;;;;;;2.00;0.67;;;;;24.17;45.50;100228.56;4972733;28;45358;-76
2022/11/04 09:26:40;;;;;;;;;0.67;0.00;;;;;24.12;45.85;100224.72;4967046;28;45337;-75
2022/11/04 09:29:08;;;;;;;;;0.67;0.00;;;;;24.03;46.03;100229.34;4972847;28;45335;-78
2022/11/04 09:31:34;;;;;;;;;3.33;0.33;;;;;23.98;46.13;100232.59;4972880;28;45575;-77
2022/11/04 09:33:59;;;;;;;;;2.33;1.33;;;;;24.01;46.41;100237.66;4973539;28;45429;-76
2022/11/04 09:36:24;;;;;;;;;0.67;0.00;;;;;24.02;46.21;100239.34;4973147;28;45442;-75
2022/11/04 09:38:51;;;;;;;;;1.33;0.00;;;;;24.03;46.81;100246.44;4973268;28;45351;-76
2022/11/04 09:41:22;;;;;;;;;1.33;1.00;;;;;24.10;46.78;100252.00;4964679;28;45829;-75
2022/11/04 09:44:31;;;;;;;;;2.00;1.00;;;;;24.15;46.95;100252.28;4966242;28;45411;-76
2022/11/04 09:47:01;;;;;;;;;2.00;2.00;;;;;24.18;46.53;100253.78;4975028;28;45431;-76
2022/11/04 09:49:35;;;;;;;;;2.00;0.00;;;;;24.24;46.91;100266.63;4951216;28;47024;-76
2022/11/04 09:52:12;;;;;;;;;0.00;0.00;;;;;24.28;46.64;100273.34;4949998;28;45583;-75
2022/11/04 09:54:49;;;;;;;;;2.00;1.00;;;;;24.29;46.67;100272.34;4950232;28;45467;-75
2022/11/04 09:57:18;;;;;;;;;0.00;0.00;;;;;24.32;46.58;100277.38;4951151;28;45357;-75
2022/11/04 09:59:45;;;;;;;;;1.00;1.00;;;;;24.36;46.77;100279.72;4950707;28;46694;-77
2022/11/04 10:02:17;;;;;;;;;1.00;1.00;;;;;24.38;46.41;100283.06;4950147;28;45956;-77
2022/11/04 10:05:02;;;;;;;;;0.00;0.00;;;;;24.39;46.21;100293.75;4957570;28;45543;-78
2022/11/04 10:07:46;;;;;;;;;0.00;0.00;;;;;24.41;46.82;100296.28;4939459;28;45543;-77
2022/11/04 10:10:44;;;;;;;;;0.33;0.33;;;;;24.43;46.67;100296.91;4950825;28;46132;-78
2022/11/04 10:13:28;;;;;;;;;1.67;0.00;;;;;24.46;46.61;100302.00;4931371;28;45784;-78
2022/11/04 10:16:23;;;;;;;;;1.00;1.00;;;;;24.48;46.56;100303.50;4930791;28;45477;-75
2022/11/04 10:19:10;;;;;;;;;0.00;0.00;;;;;24.55;46.65;100321.72;4931016;28;45761;-76
2022/11/04 10:22:02;;;;;;;;;1.00;0.00;;;;;24.60;46.71;100317.44;4911742;28;46299;-77
2022/11/04 10:24:40;;;;;;;;;0.00;0.00;;;;;24.63;46.73;100321.66;4922502;28;45904;-77
2022/11/04 10:27:18;;;;;;;;;0.00;0.00;;;;;24.72;46.62;100339.53;4911982;28;45561;-76
2022/11/04 10:29:48;;;;;;;;;1.00;1.00;;;;;24.72;45.21;100327.81;4912516;28;45439;-78
2022/11/04 10:32:25;;;;;;;;;0.67;0.67;;;;;24.71;45.67;100342.41;4901561;28;47133;-78
2022/11/04 10:34:59;;;;;;;;;0.00;0.00;;;;;24.70;45.79;100343.47;4904914;28;45417;-79
2022/11/04 10:37:25;;;;;;;;;1.00;1.00;;;;;24.69;45.82;100345.31;4960970;28;45425;-79
2022/11/04 10:39:59;;;;;;;;;1.00;1.00;;;;;24.73;45.49;100364.81;4934420;28;45438;-78
2022/11/04 10:42:24;;;;;;;;;1.33;0.33;;;;;24.74;45.89;100370.03;4911418;28;46078;-79
2022/11/04 10:44:51;;;;;;;;;0.00;0.00;;;;;24.75;46.01;100376.31;4912489;28;45335;-79
2022/11/04 10:47:46;;;;;;;;;2.00;1.00;;;;;24.73;45.82;100381.91;4909601;28;45427;-77
2022/11/04 10:50:12;;;;;;;;;0.00;0.00;;;;;24.73;46.28;100386.50;4936091;28;45374;-78
2022/11/04 10:52:38;;;;;;;;;2.00;0.00;;;;;24.70;45.55;100395.00;4969779;28;46199;-78
2022/11/04 10:55:25;;;;;;;;;0.00;0.00;;;;;24.69;44.84;100387.91;4972106;28;45446;-75
2022/11/04 10:57:57;;;;;;;;;1.00;1.00;;;;;24.67;44.49;100396.22;5073019;28;45399;-76
2022/11/04 11:00:37;;;;;;;;;1.00;1.00;;;;;24.58;44.29;100392.75;4976581;27;45391;-77
2022/11/04 11:03:23;;;;;;;;;1.00;1.00;;;;;24.48;45.05;100394.88;4972308;28;46122;-77
2022/11/04 11:05:49;;;;;;;;;1.00;1.00;;;;;24.31;44.98;100395.03;4967503;28;45820;-77
2022/11/04 11:08:41;;;;;;;;;1.00;1.00;;;;;24.09;44.97;100385.88;4966870;28;45408;-82
2022/11/04 11:11:07;;;;;;;;;0.67;0.67;;;;;24.10;45.33;100406.53;4968715;28;45695;-82
2022/11/04 11:13:39;;;;;;;;;1.00;1.00;;;;;24.08;45.37;100416.69;4971779;28;46388;-82
2022/11/04 11:16:10;;;;;;;;;2.00;1.00;;;;;24.05;45.34;100417.03;4979718;28;45371;-81
2022/11/04 11:18:37;;;;;;;;;1.00;1.00;;;;;24.07;45.54;100423.97;5043195;27;45433;-80
2022/11/04 11:21:10;;;;;;;;;1.00;1.00;;;;;24.05;45.84;100428.75;4955782;28;45598;-80
2022/11/04 11:23:39;;;;;;;;;2.67;1.00;;;;;24.10;45.68;100438.25;4968561;28;45431;-81
2022/11/04 11:26:07;;;;;;;;;1.00;1.00;;;;;24.13;45.74;100429.72;4972587;28;45429;-79
2022/11/04 11:28:37;;;;;;;;;1.00;1.00;;;;;24.14;46.19;100431.41;4973643;28;45357;-77
2022/11/04 11:31:10;;;;;;;;;1.00;1.00;;;;;24.17;45.72;100439.19;4972949;28;45912;-78
2022/11/04 11:33:39;;;;;;;;;2.33;1.67;;;;;24.19;45.00;100440.69;4974559;28;47176;-78
2022/11/04 11:36:16;;;;;;;;;2.00;2.00;;;;;24.22;44.75;100442.22;4971127;28;45421;-79
2022/11/04 11:39:02;;;;;;;;;1.67;1.33;;;;;24.16;44.96;100434.81;4977686;28;45507;-78
2022/11/04 11:41:32;;;;;;;;;2.67;1.33;;;;;24.22;45.06;100444.91;4972913;28;45554;-78
2022/11/04 11:44:06;;;;;;;;;3.33;2.00;;;;;24.26;45.11;100448.09;4976792;28;46019;-78
2022/11/04 11:46:34;;;;;;;;;1.00;1.00;;;;;24.28;45.30;100452.31;4971692;28;45408;-78
2022/11/04 11:49:03;;;;;;;;;3.00;1.33;;;;;24.30;45.54;100452.16;4978397;28;45377;-75
2022/11/04 11:51:33;;;;;;;;;1.00;1.00;;;;;24.34;45.55;100459.75;4970262;28;45467;-76
2022/11/04 11:54:16;;;;;;;;;4.00;1.67;;;;;24.34;45.33;100453.47;4969816;28;46631;-75
2022/11/04 11:56:47;;;;;;;;;2.00;2.00;;;;;24.40;45.23;100471.72;4974244;28;45339;-76
2022/11/04 11:59:19;;;;;;;;;1.00;1.00;;;;;24.42;45.19;100476.97;4975940;28;45669;-75
2022/11/04 12:02:13;;;;;;;;;1.00;1.00;;;;;24.42;45.64;100479.69;4973083;28;45500;-75
2022/11/04 12:04:40;;;;;;;;;2.00;2.00;;;;;24.43;45.21;100482.22;4958926;28;46248;-76
2022/11/04 12:07:38;;;;;;;;;2.67;1.00;;;;;24.45;45.35;100496.44;4981748;28;45517;-76
2022/11/04 12:10:30;;;;;;;;;1.00;1.00;;;;;24.46;45.04;100500.00;4931001;28;45438;-76
2022/11/04 12:13:13;;;;;;;;;1.00;1.00;;;;;24.47;44.98;100507.97;4916292;28;45749;-76
2022/11/04 12:16:07;;;;;;;;;0.00;0.00;;;;;24.46;44.97;100517.16;4930128;28;45412;-76
2022/11/04 12:18:53;;;;;;;;;0.00;0.00;;;;;24.32;45.08;100505.19;4932357;28;45455;-76
2022/11/04 12:21:32;;;;;;;;;1.00;1.00;;;;;24.41;45.07;100526.84;4932647;28;45422;-76
2022/11/04 12:24:14;;;;;;;;;1.00;1.00;;;;;24.37;45.14;100529.06;4939732;28;45500;-77
2022/11/04 12:27:10;;;;;;;;;2.00;2.00;;;;;24.32;45.05;100543.16;4942053;28;47212;-77
2022/11/04 12:30:02;;;;;;;;;1.33;1.00;;;;;24.27;45.18;100540.13;4931136;28;45641;-77
2022/11/04 12:32:45;;;;;;;;;1.00;1.00;;;;;24.25;45.11;100557.59;4932342;28;45778;-78
2022/11/04 12:35:43;;;;;;;;;1.67;0.00;;;;;24.23;45.10;100555.06;4911841;28;47468;-78
2022/11/04 12:38:28;;;;;;;;;1.00;1.00;;;;;24.20;45.72;100563.59;4856411;28;46314;-78
2022/11/04 12:41:32;;;;;;;;;1.00;1.00;;;;;24.19;45.62;100572.72;4856903;28;45472;-79
2022/11/04 12:44:23;;;;;;;;;1.33;1.33;;;;;24.19;45.65;100572.72;4888126;28;45486;-79
2022/11/04 12:46:57;;;;;;;;;0.33;0.33;;;;;24.21;45.45;100578.81;4913159;28;45501;-79
2022/11/04 12:49:41;;;;;;;;;0.33;0.33;;;;;24.26;45.82;100598.13;4948400;28;46072;-78
2022/11/04 12:52:33;;;;;;;;;1.00;1.00;;;;;24.31;45.80;100600.28;4874622;28;45428;-77
2022/11/04 12:55:31;;;;;;;;;0.33;0.33;;;;;24.38;45.43;100600.41;4856644;28;45605;-77
2022/11/04 12:58:17;;;;;;;;;0.67;0.67;;;;;24.44;46.00;100605.97;4869995;28;47235;-77
2022/11/04 13:00:47;;;;;;;;;1.67;0.67;;;;;24.51;45.97;100603.41;4874986;28;45544;-78
2022/11/04 13:03:25;;;;;;;;;2.00;2.00;;;;;24.60;45.96;100609.63;4868909;28;47349;-78
2022/11/04 13:06:01;;;;;;;;;0.33;0.33;;;;;24.66;45.62;100606.22;4874457;28;46035;-78
2022/11/04 13:08:51;;;;;;;;;2.00;1.00;;;;;24.74;46.03;100605.31;4869549;28;45692;-77
2022/11/04 13:11:22;;;;;;;;;1.00;1.00;;;;;24.81;46.16;100608.16;4868159;28;47633;-78
2022/11/04 13:14:10;;;;;;;;;2.00;0.33;;;;;24.92;45.75;100621.31;4904755;28;45342;-75
2022/11/04 13:16:42;;;;;;;;;3.00;2.00;;;;;24.97;45.45;100628.94;4923175;28;45686;-78
2022/11/04 13:19:25;;;;;;;;;3.00;3.00;;;;;25.04;43.81;100632.59;4956799;28;45541;-81
2022/11/04 13:21:50;;;;;;;;;2.00;2.00;;;;;24.98;44.27;100631.44;4962051;28;46969;-87
2022/11/04 13:24:31;;;;;;;;;2.00;1.00;;;;;25.07;44.67;100636.81;4960601;28;46316;-87
2022/11/04 13:27:01;;;;;;;;;1.00;1.00;;;;;25.11;44.67;100646.28;4957422;28;45814;-87
2022/11/04 13:29:27;;;;;;;;;1.00;1.00;;;;;25.13;44.46;100655.94;4961964;28;46839;-86
2022/11/04 13:32:44;;;;;;;;;1.67;1.67;;;;;25.20;44.50;100666.94;4957422;28;45584;-78
2022/11/04 13:35:23;;;;;;;;;2.00;0.67;;;;;25.24;44.49;100667.41;4937874;28;45623;-75
2022/11/04 13:37:58;;;;;;;;;2.00;1.00;;;;;25.27;44.52;100684.19;4938106;28;45696;-80
2022/11/04 13:40:39;;;;;;;;;2.33;1.00;;;;;25.31;44.64;100692.84;4939425;28;45603;-80
2022/11/04 13:43:37;;;;;;;;;1.00;1.00;;;;;25.36;44.52;100693.13;4940645;28;45523;-80
2022/11/04 13:46:17;;;;;;;;;1.67;1.67;;;;;25.37;44.81;100707.53;4935805;28;45597;-79
2022/11/04 13:48:56;;;;;;;;;1.00;1.00;;;;;25.38;44.77;100717.41;4941636;28;45718;-79
2022/11/04 13:51:22;;;;;;;;;2.00;2.00;;;;;25.37;44.59;100713.81;4939244;28;45520;-79
2022/11/04 13:53:52;;;;;;;;;2.00;1.00;;;;;25.39;44.84;100724.53;4944848;28;46072;-77
2022/11/04 13:56:39;;;;;;;;;1.67;0.33;;;;;25.37;44.55;100743.72;4935085;28;45510;-77
2022/11/04 13:59:16;;;;;;;;;3.00;1.67;;;;;25.27;44.86;100727.63;4935911;28;45560;-76
2022/11/04 14:01:41;;;;;;;;;0.33;0.33;;;;;25.33;44.64;100749.66;4935542;28;45980;-78
2022/11/04 14:04:25;;;;;;;;;2.00;2.00;;;;;25.31;45.01;100755.31;4927379;28;54310;-77
2022/11/04 14:06:51;;;;;;;;;1.00;1.00;;;;;25.30;45.26;100771.78;4938777;28;45492;-79
2022/11/04 14:09:23;;;;;;;;;1.00;1.00;;;;;25.29;45.26;100764.66;4937930;28;45723;-78
2022/11/04 14:12:07;;;;;;;;;1.00;1.00;;;;;25.32;45.02;100777.88;4956372;28;45584;-80
2022/11/04 14:14:33;;;;;;;;;1.33;1.00;;;;;25.36;45.33;100790.94;4960933;28;47064;-78
2022/11/04 14:17:00;;;;;;;;;3.00;3.00;;;;;25.37;45.17;100780.88;4960164;28;45557;-79
2022/11/04 14:20:07;;;;;;;;;1.00;1.00;;;;;25.43;45.06;100787.47;4958549;28;45712;-79
2022/11/04 14:22:43;;;;;;;;;0.67;0.67;;;;;25.43;45.42;100788.34;4959342;28;46099;-81
2022/11/04 14:25:26;;;;;;;;;2.00;1.00;;;;;25.47;45.50;100797.78;4961507;28;45367;-76
2022/11/04 14:28:01;;;;;;;;;2.00;1.00;;;;;25.48;45.21;100799.50;4961736;28;47092;-78
2022/11/04 14:30:34;;;;;;;;;2.00;1.00;;;;;25.47;45.15;100797.78;4960530;28;45553;-81
2022/11/04 14:33:32;;;;;;;;;2.00;0.00;;;;;25.48;45.54;100818.53;4957181;28;45529;-78
2022/11/04 14:36:19;;;;;;;;;2.33;1.33;;;;;25.46;45.14;100826.00;4958284;28;47292;-77
2022/11/04 14:39:00;;;;;;;;;1.00;1.00;;;;;25.45;45.38;100820.75;4976688;28;45692;-83
2022/11/04 14:41:52;;;;;;;;;1.00;1.00;;;;;25.43;45.30;100829.09;4959304;28;45519;-83
2022/11/04 14:44:33;;;;;;;;;0.67;0.67;;;;;25.41;45.66;100827.59;4962667;28;46610;-83
2022/11/04 14:47:06;;;;;;;;;1.00;1.00;;;;;25.38;45.56;100834.22;4970863;28;46053;-84
2022/11/04 14:49:50;;;;;;;;;0.00;0.00;;;;;25.41;45.35;100833.03;4970887;28;45512;-84
2022/11/04 14:52:21;;;;;;;;;2.00;2.00;;;;;25.38;45.88;100821.47;4968149;28;45504;-79
2022/11/04 14:54:48;;;;;;;;;1.00;1.00;;;;;25.39;45.82;100844.88;4968379;28;45784;-79
2022/11/04 14:57:20;;;;;;;;;1.33;1.00;;;;;25.44;45.93;100847.09;4977837;28;47162;-79
2022/11/04 14:59:46;;;;;;;;;2.00;0.00;;;;;25.48;45.77;100864.72;4974027;28;45429;-78
2022/11/04 15:02:21;;;;;;;;;1.00;1.00;;;;;25.45;46.06;100861.50;4986206;28;46477;-75
2022/11/04 15:04:51;;;;;;;;;3.00;1.00;;;;;25.51;42.48;100877.09;4957399;28;46064;-79
2022/11/04 15:07:35;;;;;;;;;3.00;3.00;;;;;25.43;42.30;100871.72;4978150;28;45507;-76
2022/11/04 15:10:17;;;;;;;;;2.00;2.00;;;;;25.31;42.35;100885.69;4956599;28;45824;-77
2022/11/04 15:12:53;;;;;;;;;3.00;3.00;;;;;25.24;42.72;100888.28;4963483;28;45510;-78
2022/11/04 15:15:33;;;;;;;;;3.00;3.00;;;;;25.20;42.81;100891.50;4971376;28;45689;-79
2022/11/04 15:18:05;;;;;;;;;3.33;3.00;;;;;25.10;42.68;100881.69;4962513;28;46469;-79
2022/11/04 15:20:33;;;;;;;;;2.00;2.00;;;;;25.09;42.48;100890.88;4979466;27;47003;-78
2022/11/04 15:23:01;;;;;;;;;2.00;2.00;;;;;25.05;43.09;100888.69;4961138;28;45552;-79
2022/11/04 15:25:27;;;;;;;;;3.00;2.00;;;;;25.06;43.56;100901.25;4964120;28;45525;-78
2022/11/04 15:27:54;;;;;;;;;2.00;2.00;;;;;25.04;43.18;100903.28;4961087;28;45692;-78
2022/11/04 15:30:26;;;;;;;;;1.67;1.00;;;;;25.03;43.25;100902.44;4960980;28;45424;-78
2022/11/04 15:32:59;;;;;;;;;2.00;2.00;;;;;24.96;43.42;100912.28;4963200;28;47200;-77
2022/11/04 15:35:27;;;;;;;;;5.00;2.00;;;;;24.97;43.19;100917.56;4963348;28;45752;-77
2022/11/04 15:37:53;;;;;;;;;3.00;3.00;;;;;24.94;43.87;100919.78;4960507;28;45510;-76
2022/11/04 15:40:20;;;;;;;;;3.33;2.00;;;;;24.94;43.49;100923.34;4961342;28;45803;-78
2022/11/04 15:42:47;;;;;;;;;2.00;2.00;;;;;24.92;43.90;100919.94;4963805;28;45566;-75
2022/11/04 15:45:38;;;;;;;;;2.00;2.00;;;;;24.91;43.77;100911.97;4958623;28;45835;-75
2022/11/04 15:48:36;;;;;;;;;3.00;2.00;;;;;24.90;44.13;100903.00;4966378;28;45816;-77
2022/11/04 15:51:04;;;;;;;;;2.33;2.33;;;;;24.88;42.69;100904.19;4967563;28;45531;-85
2022/11/04 15:53:33;;;;;;;;;2.00;2.00;;;;;24.84;43.14;100909.97;4967295;28;45516;-79
2022/11/04 15:55:59;;;;;;;;;3.33;3.33;;;;;24.77;43.45;100903.47;4971171;28;45363;-83
2022/11/04 15:58:25;;;;;;;;;2.00;2.00;;;;;24.77;43.83;100913.50;4970890;28;45559;-77
2022/11/04 16:00:55;;;;;;;;;2.00;2.00;;;;;24.73;43.57;100922.00;4959102;28;45407;-76
2022/11/04 16:03:23;;;;;;;;;1.67;1.67;;;;;24.70;43.71;100918.78;4968026;28;45565;-76
2022/11/04 16:06:08;;;;;;;;;1.00;1.00;;;;;24.66;43.90;100925.56;4986162;28;45361;-79
2022/11/04 16:08:34;;;;;;;;;1.33;1.33;;;;;24.64;44.06;100935.75;4973111;28;47055;-78
2022/11/04 16:11:18;;;;;;;;;3.00;1.00;;;;;24.60;44.50;100951.50;4968172;28;45573;-79
2022/11/04 16:13:45;;;;;;;;;5.33;3.00;;;;;24.61;44.39;100955.94;4957889;28;45881;-75
2022/11/04 16:16:26;;;;;;;;;5.00;1.67;;;;;24.58;44.50;100959.84;4956912;28;45620;-75
2022/11/04 16:18:57;;;;;;;;;2.00;2.00;;;;;24.58;44.76;100981.56;4961695;28;45708;-77
2022/11/04 16:21:25;;;;;;;;;3.00;1.67;;;;;24.60;44.25;100981.38;4967327;28;45803;-75
2022/11/04 16:23:58;;;;;;;;;2.67;2.33;;;;;24.60;44.66;100993.06;4966851;28;45401;-76
2022/11/04 16:26:28;;;;;;;;;2.33;2.00;;;;;24.61;44.56;100993.94;4961329;28;45635;-75
2022/11/04 16:28:57;;;;;;;;;1.00;1.00;;;;;24.60;44.85;101001.22;4969997;28;46267;-76
2022/11/04 16:31:26;;;;;;;;;2.00;2.00;;;;;24.58;44.98;101007.84;4962743;28;45445;-77
2022/11/04 16:33:51;;;;;;;;;2.33;2.33;;;;;24.62;45.15;101022.75;4979512;28;45329;-76
2022/11/04 16:36:23;;;;;;;;;2.67;2.00;;;;;24.61;44.92;101026.50;4966882;28;45836;-78
2022/11/04 16:38:54;;;;;;;;;3.00;3.00;;;;;24.66;44.96;101040.41;4960747;28;46016;-76
2022/11/04 16:41:20;;;;;;;;;2.00;2.00;;;;;24.67;45.14;101058.38;4958465;28;45648;-76
2022/11/04 16:43:47;;;;;;;;;2.33;1.00;;;;;24.66;45.33;101058.53;4966322;28;45546;-77
2022/11/04 16:46:12;;;;;;;;;5.00;2.00;;;;;24.68;42.67;101060.06;4966093;28;45564;-77
2022/11/04 16:48:38;;;;;;;;;1.67;1.67;;;;;24.70;42.14;101057.19;4971785;28;45939;-75
2022/11/04 16:51:03;;;;;;;;;2.00;2.00;;;;;24.72;41.87;101057.88;4970659;28;54443;-75
2022/11/04 16:53:28;;;;;;;;;3.00;1.00;;;;;24.70;41.85;101070.75;4967674;28;45662;-75
2022/11/04 16:55:55;;;;;;;;;2.00;2.00;;;;;24.62;41.71;101071.63;4967045;28;53900;-77
2022/11/04 16:58:21;;;;;;;;;2.00;2.00;;;;;24.54;42.01;101069.75;4965806;28;47855;-77
2022/11/04 17:00:46;;;;;;;;;2.33;2.33;;;;;24.43;42.36;101068.19;5011382;27;45907;-77
2022/11/04 17:03:21;;;;;;;;;3.00;2.00;;;;;24.32;42.46;101063.09;4971022;28;45789;-76
2022/11/04 17:05:53;;;;;;;;;1.67;1.67;;;;;24.36;42.79;101064.44;4962995;28;45832;-73
2022/11/04 17:08:18;;;;;;;;;2.00;2.00;;;;;24.30;42.58;101065.97;4961813;28;46359;-74
2022/11/04 17:10:44;;;;;;;;;1.67;1.67;;;;;24.39;43.14;101074.13;4973128;28;45478;-74
2022/11/04 17:13:10;;;;;;;;;3.33;1.67;;;;;24.39;43.28;101096.66;4961843;28;45504;-74
2022/11/04 17:15:35;;;;;;;;;1.00;1.00;;;;;24.41;43.64;101100.06;4958369;28;46110;-73
2022/11/04 17:18:01;;;;;;;;;1.00;1.00;;;;;24.41;43.52;101105.50;4965059;28;45486;-74
2022/11/04 17:20:26;;;;;;;;;1.00;1.00;;;;;24.45;43.23;101112.28;4973409;28;45550;-74
2022/11/04 17:22:51;;;;;;;;;1.00;1.00;;;;;24.48;43.40;101120.09;4971126;28;45490;-73
2022/11/04 17:25:23;;;;;;;;;2.00;1.00;;;;;24.52;43.27;101125.19;4963736;28;45425;-73
2022/11/04 17:27:48;;;;;;;;;1.00;1.00;;;;;24.55;43.60;101138.41;4964984;28;46060;-73
2022/11/04 17:30:15;;;;;;;;;2.33;2.00;;;;;24.57;43.81;101142.66;4965357;28;45467;-73
2022/11/04 17:32:42;;;;;;;;;2.00;2.00;;;;;24.60;43.69;101145.03;4964029;28;45498;-74
2022/11/04 17:35:09;;;;;;;;;0.67;0.67;;;;;24.63;43.70;101149.28;4953135;28;45399;-75
2022/11/04 17:37:34;;;;;;;;;1.00;1.00;;;;;24.66;43.91;101148.97;4959075;28;46808;-74
